Traunik, Michigan
Current Conditions -  °F | °C
As of 12:50 PM on Wednesday 26 Nov 2014 (Local Time) from KSAW Reporting Station
Broken Clouds Broken Clouds  
Wind Chill: 19°   Ceiling: 7000
Heat Index: 19°   Visibility: 10mi
Dew Point: 18°   Wind: 3mph
Humidity: 93%   Direction: 240°WSW
Pressure: 30.11"   Gusts: NA
Location:  46.2203°N, 86.9431°W
Report Text: KSAW 261750Z 24003KT 10SM SCT060 BKN070 BKKN085 M07/M08 A3011
Loading
Personal Weather Stations






























Interactive Weather Map New forecast layout! Learn more

10-Day Weather Forecast

Advertisements
Track Severe Weather on mobile